sensor_id;sensor_type;location;lat;lon;timestamp;pressure;altitude;pressure_sealevel;temperature;humidity
72921;BME280;61064;51.654;5.476;2023-11-21T00:01:40;101116.50;;;8.21;100.00
72921;BME280;61064;51.654;5.476;2023-11-21T00:04:05;101119.91;;;8.14;100.00
72921;BME280;61064;51.654;5.476;2023-11-21T00:06:32;101116.28;;;8.11;100.00
72921;BME280;61064;51.654;5.476;2023-11-21T00:08:58;101115.31;;;8.06;100.00
72921;BME280;61064;51.654;5.476;2023-11-21T00:11:23;101116.97;;;8.01;100.00
72921;BME280;61064;51.654;5.476;2023-11-21T00:13:50;101113.28;;;7.94;100.00
72921;BME280;61064;51.654;5.476;2023-11-21T00:16:15;101125.72;;;7.98;100.00
72921;BME280;61064;51.654;5.476;2023-11-21T00:18:40;101117.66;;;7.92;100.00
72921;BME280;61064;51.654;5.476;2023-11-21T00:21:08;101120.16;;;7.86;100.00
72921;BME280;61064;51.654;5.476;2023-11-21T00:23:34;101122.00;;;7.88;100.00
72921;BME280;61064;51.654;5.476;2023-11-21T00:25:59;101121.97;;;7.85;100.00
72921;BME280;61064;51.654;5.476;2023-11-21T00:28:25;101111.13;;;7.76;100.00
72921;BME280;61064;51.654;5.476;2023-11-21T00:30:51;101111.94;;;7.72;100.00
72921;BME280;61064;51.654;5.476;2023-11-21T00:33:16;101110.88;;;7.64;100.00
72921;BME280;61064;51.654;5.476;2023-11-21T00:35:42;101125.09;;;7.68;100.00
72921;BME280;61064;51.654;5.476;2023-11-21T00:38:07;101114.25;;;7.57;100.00
72921;BME280;61064;51.654;5.476;2023-11-21T00:40:33;101124.94;;;7.62;100.00
72921;BME280;61064;51.654;5.476;2023-11-21T00:42:59;101114.06;;;7.49;100.00
72921;BME280;61064;51.654;5.476;2023-11-21T00:45:24;101118.47;;;7.49;100.00
72921;BME280;61064;51.654;5.476;2023-11-21T00:47:50;101135.31;;;7.52;100.00
72921;BME280;61064;51.654;5.476;2023-11-21T00:50:16;101121.88;;;7.43;100.00
72921;BME280;61064;51.654;5.476;2023-11-21T00:52:41;101130.69;;;7.44;100.00
72921;BME280;61064;51.654;5.476;2023-11-21T00:55:07;101125.19;;;7.35;100.00
72921;BME280;61064;51.654;5.476;2023-11-21T00:57:33;101141.09;;;7.35;100.00
72921;BME280;61064;51.654;5.476;2023-11-21T00:59:59;101135.63;;;7.29;100.00
72921;BME280;61064;51.654;5.476;2023-11-21T01:02:25;101147.22;;;7.34;100.00
72921;BME280;61064;51.654;5.476;2023-11-21T01:04:51;101151.53;;;7.30;100.00
72921;BME280;61064;51.654;5.476;2023-11-21T01:07:16;101154.97;;;7.26;100.00
72921;BME280;61064;51.654;5.476;2023-11-21T01:09:42;101152.28;;;7.25;100.00
72921;BME280;61064;51.654;5.476;2023-11-21T01:12:09;101140.47;;;7.10;100.00
72921;BME280;61064;51.654;5.476;2023-11-21T01:14:34;101147.59;;;7.13;100.00
72921;BME280;61064;51.654;5.476;2023-11-21T01:17:01;101165.25;;;7.14;100.00
72921;BME280;61064;51.654;5.476;2023-11-21T01:19:27;101157.09;;;7.05;100.00
72921;BME280;61064;51.654;5.476;2023-11-21T01:21:54;101178.34;;;7.09;100.00
72921;BME280;61064;51.654;5.476;2023-11-21T01:24:19;101182.75;;;7.09;100.00
72921;BME280;61064;51.654;5.476;2023-11-21T01:26:44;101182.75;;;7.07;100.00
72921;BME280;61064;51.654;5.476;2023-11-21T01:29:11;101180.94;;;7.06;100.00
72921;BME280;61064;51.654;5.476;2023-11-21T01:31:37;101175.59;;;7.05;100.00
72921;BME280;61064;51.654;5.476;2023-11-21T01:34:02;101173.75;;;7.02;100.00
72921;BME280;61064;51.654;5.476;2023-11-21T01:36:31;101191.53;;;7.08;100.00
72921;BME280;61064;51.654;5.476;2023-11-21T01:38:57;101180.84;;;7.03;100.00
72921;BME280;61064;51.654;5.476;2023-11-21T01:41:25;101182.69;;;7.06;100.00
72921;BME280;61064;51.654;5.476;2023-11-21T01:43:52;101178.28;;;7.06;100.00
72921;BME280;61064;51.654;5.476;2023-11-21T01:46:18;101188.03;;;7.09;100.00
72921;BME280;61064;51.654;5.476;2023-11-21T01:48:45;101187.25;;;7.12;100.00
72921;BME280;61064;51.654;5.476;2023-11-21T01:51:11;101190.94;;;7.18;100.00
72921;BME280;61064;51.654;5.476;2023-11-21T01:53:36;101177.56;;;7.12;100.00
72921;BME280;61064;51.654;5.476;2023-11-21T01:56:02;101193.59;;;7.20;100.00
72921;BME280;61064;51.654;5.476;2023-11-21T01:58:27;101197.25;;;7.23;100.00
72921;BME280;61064;51.654;5.476;2023-11-21T02:00:52;101200.75;;;7.22;100.00
72921;BME280;61064;51.654;5.476;2023-11-21T02:03:20;101188.47;;;7.24;100.00
72921;BME280;61064;51.654;5.476;2023-11-21T02:05:45;101193.59;;;7.18;100.00
72921;BME280;61064;51.654;5.476;2023-11-21T02:08:11;101189.94;;;7.13;100.00
72921;BME280;61064;51.654;5.476;2023-11-21T02:10:36;101203.28;;;7.19;100.00
72921;BME280;61064;51.654;5.476;2023-11-21T02:13:05;101193.44;;;7.12;100.00
72921;BME280;61064;51.654;5.476;2023-11-21T02:15:31;101197.00;;;7.14;100.00
72921;BME280;61064;51.654;5.476;2023-11-21T02:17:57;101212.22;;;7.23;100.00
72921;BME280;61064;51.654;5.476;2023-11-21T02:20:23;101209.38;;;7.15;100.00
72921;BME280;61064;51.654;5.476;2023-11-21T02:22:56;101217.34;;;7.17;100.00
72921;BME280;61064;51.654;5.476;2023-11-21T02:25:26;101222.56;;;7.14;100.00
72921;BME280;61064;51.654;5.476;2023-11-21T02:27:53;101228.75;;;7.14;100.00
72921;BME280;61064;51.654;5.476;2023-11-21T02:30:20;101229.56;;;7.12;100.00
72921;BME280;61064;51.654;5.476;2023-11-21T02:32:47;101219.63;;;7.03;100.00
72921;BME280;61064;51.654;5.476;2023-11-21T02:35:13;101223.28;;;7.08;100.00
72921;BME280;61064;51.654;5.476;2023-11-21T02:37:38;101234.81;;;7.10;100.00
72921;BME280;61064;51.654;5.476;2023-11-21T02:40:04;101222.28;;;7.03;100.00
72921;BME280;61064;51.654;5.476;2023-11-21T02:42:35;101230.34;;;7.07;100.00
72921;BME280;61064;51.654;5.476;2023-11-21T02:45:00;101233.81;;;7.05;100.00
72921;BME280;61064;51.654;5.476;2023-11-21T02:47:25;101230.19;;;7.01;100.00
72921;BME280;61064;51.654;5.476;2023-11-21T02:49:51;101220.34;;;6.97;100.00
72921;BME280;61064;51.654;5.476;2023-11-21T02:52:17;101217.69;;;6.96;100.00
72921;BME280;61064;51.654;5.476;2023-11-21T02:54:42;101233.69;;;7.00;100.00
72921;BME280;61064;51.654;5.476;2023-11-21T02:57:08;101243.41;;;7.01;100.00
72921;BME280;61064;51.654;5.476;2023-11-21T02:59:33;101227.38;;;6.95;100.00
72921;BME280;61064;51.654;5.476;2023-11-21T03:02:00;101222.72;;;6.87;100.00
72921;BME280;61064;51.654;5.476;2023-11-21T03:04:25;101223.78;;;6.93;100.00
72921;BME280;61064;51.654;5.476;2023-11-21T03:06:51;101230.03;;;6.97;100.00
72921;BME280;61064;51.654;5.476;2023-11-21T03:09:16;101222.88;;;6.93;100.00
72921;BME280;61064;51.654;5.476;2023-11-21T03:11:42;101231.00;;;6.99;100.00
72921;BME280;61064;51.654;5.476;2023-11-21T03:14:07;101238.94;;;6.99;100.00
72921;BME280;61064;51.654;5.476;2023-11-21T03:16:32;101226.31;;;6.89;100.00
72921;BME280;61064;51.654;5.476;2023-11-21T03:18:58;101228.13;;;6.91;100.00
72921;BME280;61064;51.654;5.476;2023-11-21T03:21:24;101242.19;;;6.89;100.00
72921;BME280;61064;51.654;5.476;2023-11-21T03:23:50;101247.63;;;6.95;100.00
72921;BME280;61064;51.654;5.476;2023-11-21T03:26:15;101228.00;;;6.87;100.00
72921;BME280;61064;51.654;5.476;2023-11-21T03:28:41;101248.59;;;6.98;100.00
72921;BME280;61064;51.654;5.476;2023-11-21T03:31:10;101247.59;;;6.93;100.00
72921;BME280;61064;51.654;5.476;2023-11-21T03:33:35;101254.78;;;6.99;100.00
72921;BME280;61064;51.654;5.476;2023-11-21T03:36:03;101244.16;;;6.96;100.00
72921;BME280;61064;51.654;5.476;2023-11-21T03:38:29;101247.63;;;6.95;100.00
72921;BME280;61064;51.654;5.476;2023-11-21T03:40:54;101252.94;;;6.95;100.00
72921;BME280;61064;51.654;5.476;2023-11-21T03:43:19;101247.53;;;6.90;100.00
72921;BME280;61064;51.654;5.476;2023-11-21T03:45:45;101256.34;;;6.91;100.00
72921;BME280;61064;51.654;5.476;2023-11-21T03:48:12;101265.13;;;6.90;100.00
72921;BME280;61064;51.654;5.476;2023-11-21T03:50:38;101259.78;;;6.88;100.00
72921;BME280;61064;51.654;5.476;2023-11-21T03:53:04;101247.03;;;6.74;100.00
72921;BME280;61064;51.654;5.476;2023-11-21T03:55:29;101255.91;;;6.76;100.00
72921;BME280;61064;51.654;5.476;2023-11-21T03:57:56;101256.78;;;6.76;100.00
72921;BME280;61064;51.654;5.476;2023-11-21T04:00:22;101265.69;;;6.78;100.00
72921;BME280;61064;51.654;5.476;2023-11-21T04:02:48;101273.63;;;6.78;100.00
72921;BME280;61064;51.654;5.476;2023-11-21T04:05:13;101259.25;;;6.68;100.00
72921;BME280;61064;51.654;5.476;2023-11-21T04:07:39;101272.66;;;6.76;100.00
72921;BME280;61064;51.654;5.476;2023-11-21T04:10:06;101267.19;;;6.68;100.00
72921;BME280;61064;51.654;5.476;2023-11-21T04:12:34;101274.09;;;6.65;100.00
72921;BME280;61064;51.654;5.476;2023-11-21T04:14:59;101288.44;;;6.73;100.00
72921;BME280;61064;51.654;5.476;2023-11-21T04:17:24;101287.44;;;6.68;100.00
72921;BME280;61064;51.654;5.476;2023-11-21T04:19:50;101283.91;;;6.69;100.00
72921;BME280;61064;51.654;5.476;2023-11-21T04:22:15;101286.59;;;6.71;100.00
72921;BME280;61064;51.654;5.476;2023-11-21T04:24:40;101289.25;;;6.71;100.00
72921;BME280;61064;51.654;5.476;2023-11-21T04:27:06;101277.56;;;6.62;100.00
72921;BME280;61064;51.654;5.476;2023-11-21T04:29:31;101302.56;;;6.74;100.00
72921;BME280;61064;51.654;5.476;2023-11-21T04:31:56;101309.69;;;6.76;100.00
72921;BME280;61064;51.654;5.476;2023-11-21T04:34:22;101297.13;;;6.69;100.00
72921;BME280;61064;51.654;5.476;2023-11-21T04:36:47;101305.28;;;6.77;100.00
72921;BME280;61064;51.654;5.476;2023-11-21T04:39:12;101296.47;;;6.76;100.00
72921;BME280;61064;51.654;5.476;2023-11-21T04:41:38;101292.03;;;6.75;100.00
72921;BME280;61064;51.654;5.476;2023-11-21T04:44:05;101302.75;;;6.80;100.00
72921;BME280;61064;51.654;5.476;2023-11-21T04:46:31;101305.47;;;6.83;100.00
72921;BME280;61064;51.654;5.476;2023-11-21T04:48:57;101312.69;;;6.88;100.00
72921;BME280;61064;51.654;5.476;2023-11-21T04:51:22;101311.78;;;6.88;100.00
72921;BME280;61064;51.654;5.476;2023-11-21T04:53:47;101319.00;;;6.93;100.00
72921;BME280;61064;51.654;5.476;2023-11-21T04:56:13;101323.56;;;6.99;100.00
72921;BME280;61064;51.654;5.476;2023-11-21T04:58:38;101332.47;;;7.01;100.00
72921;BME280;61064;51.654;5.476;2023-11-21T05:01:05;101330.66;;;7.00;100.00
72921;BME280;61064;51.654;5.476;2023-11-21T05:03:31;101332.53;;;7.04;100.00
72921;BME280;61064;51.654;5.476;2023-11-21T05:05:57;101344.25;;;7.12;100.00
72921;BME280;61064;51.654;5.476;2023-11-21T05:08:22;101327.34;;;7.07;100.00
72921;BME280;61064;51.654;5.476;2023-11-21T05:10:47;101341.66;;;7.15;100.00
72921;BME280;61064;51.654;5.476;2023-11-21T05:13:14;101360.47;;;7.24;100.00
72921;BME280;61064;51.654;5.476;2023-11-21T05:15:42;101345.38;;;7.22;100.00
72921;BME280;61064;51.654;5.476;2023-11-21T05:18:08;101346.28;;;7.22;100.00
72921;BME280;61064;51.654;5.476;2023-11-21T05:20:33;101341.84;;;7.21;100.00
72921;BME280;61064;51.654;5.476;2023-11-21T05:22:58;101333.84;;;7.20;100.00
72921;BME280;61064;51.654;5.476;2023-11-21T05:25:24;101336.78;;;7.29;100.00
72921;BME280;61064;51.654;5.476;2023-11-21T05:27:50;101335.75;;;7.24;100.00
72921;BME280;61064;51.654;5.476;2023-11-21T05:30:15;101341.94;;;7.24;100.00
72921;BME280;61064;51.654;5.476;2023-11-21T05:32:41;101355.31;;;7.30;100.00
72921;BME280;61064;51.654;5.476;2023-11-21T05:35:14;101347.31;;;7.27;100.00
72921;BME280;61064;51.654;5.476;2023-11-21T05:37:43;101364.19;;;7.32;100.00
72921;BME280;61064;51.654;5.476;2023-11-21T05:40:09;101372.31;;;7.38;100.00
72921;BME280;61064;51.654;5.476;2023-11-21T05:42:35;101371.41;;;7.38;100.00
72921;BME280;61064;51.654;5.476;2023-11-21T05:45:02;101385.72;;;7.44;100.00
72921;BME280;61064;51.654;5.476;2023-11-21T05:47:46;101388.44;;;7.46;100.00
72921;BME280;61064;51.654;5.476;2023-11-21T05:50:13;101391.06;;;7.46;100.00
72921;BME280;61064;51.654;5.476;2023-11-21T05:52:42;101397.34;;;7.49;100.00
72921;BME280;61064;51.654;5.476;2023-11-21T05:55:08;101386.63;;;7.45;100.00
72921;BME280;61064;51.654;5.476;2023-11-21T05:57:34;101412.44;;;7.53;100.00
72921;BME280;61064;51.654;5.476;2023-11-21T06:00:07;101401.00;;;7.55;100.00
72921;BME280;61064;51.654;5.476;2023-11-21T06:02:40;101407.16;;;7.53;100.00
72921;BME280;61064;51.654;5.476;2023-11-21T06:05:09;101412.44;;;7.53;100.00
72921;BME280;61064;51.654;5.476;2023-11-21T06:07:35;101411.59;;;7.55;100.00
72921;BME280;61064;51.654;5.476;2023-11-21T06:10:03;101417.78;;;7.55;100.00
72921;BME280;61064;51.654;5.476;2023-11-21T06:12:31;101416.00;;;7.54;100.00
72921;BME280;61064;51.654;5.476;2023-11-21T06:15:03;101424.88;;;7.56;100.00
72921;BME280;61064;51.654;5.476;2023-11-21T06:17:31;101414.25;;;7.55;100.00
72921;BME280;61064;51.654;5.476;2023-11-21T06:19:56;101422.25;;;7.56;100.00
72921;BME280;61064;51.654;5.476;2023-11-21T06:22:21;101418.63;;;7.54;100.00
72921;BME280;61064;51.654;5.476;2023-11-21T06:24:47;101421.22;;;7.51;100.00
72921;BME280;61064;51.654;5.476;2023-11-21T06:27:12;101417.72;;;7.52;100.00
72921;BME280;61064;51.654;5.476;2023-11-21T06:29:37;101437.28;;;7.59;100.00
72921;BME280;61064;51.654;5.476;2023-11-21T06:32:03;101419.41;;;7.50;100.00
72921;BME280;61064;51.654;5.476;2023-11-21T06:34:30;101429.41;;;7.60;100.00
72921;BME280;61064;51.654;5.476;2023-11-21T06:36:56;101428.56;;;7.61;100.00
72921;BME280;61064;51.654;5.476;2023-11-21T06:39:24;101424.78;;;7.53;100.00
72921;BME280;61064;51.654;5.476;2023-11-21T06:41:52;101433.75;;;7.58;100.00
72921;BME280;61064;51.654;5.476;2023-11-21T06:44:17;101412.44;;;7.52;100.00
72921;BME280;61064;51.654;5.476;2023-11-21T06:46:45;101417.72;;;7.52;100.00
72921;BME280;61064;51.654;5.476;2023-11-21T06:49:10;101425.78;;;7.57;100.00
72921;BME280;61064;51.654;5.476;2023-11-21T06:51:36;101453.41;;;7.66;100.00
72921;BME280;61064;51.654;5.476;2023-11-21T06:54:04;101453.47;;;7.69;100.00
72921;BME280;61064;51.654;5.476;2023-11-21T06:56:30;101440.16;;;7.66;100.00
72921;BME280;61064;51.654;5.476;2023-11-21T06:58:56;101440.22;;;7.69;100.00
72921;BME280;61064;51.654;5.476;2023-11-21T07:01:21;101457.97;;;7.72;100.00
72921;BME280;61064;51.654;5.476;2023-11-21T07:03:46;101461.56;;;7.74;100.00
72921;BME280;61064;51.654;5.476;2023-11-21T07:06:12;101455.25;;;7.69;100.00
72921;BME280;61064;51.654;5.476;2023-11-21T07:08:37;101467.78;;;7.74;100.00
72921;BME280;61064;51.654;5.476;2023-11-21T07:11:03;101461.53;;;7.72;100.00
72921;BME280;61064;51.654;5.476;2023-11-21T07:13:30;101460.84;;;7.79;100.00
72921;BME280;61064;51.654;5.476;2023-11-21T07:15:55;101467.03;;;7.80;100.00
72921;BME280;61064;51.654;5.476;2023-11-21T07:18:21;101466.03;;;7.76;100.00
72921;BME280;61064;51.654;5.476;2023-11-21T07:20:46;101465.31;;;7.82;100.00
72921;BME280;61064;51.654;5.476;2023-11-21T07:23:11;101455.44;;;7.76;100.00
72921;BME280;61064;51.654;5.476;2023-11-21T07:25:37;101481.38;;;7.88;100.00
72921;BME280;61064;51.654;5.476;2023-11-21T07:28:02;101475.13;;;7.84;100.00
72921;BME280;61064;51.654;5.476;2023-11-21T07:30:28;101495.56;;;7.90;100.00
72921;BME280;61064;51.654;5.476;2023-11-21T07:32:53;101493.84;;;7.92;100.00
72921;BME280;61064;51.654;5.476;2023-11-21T07:35:19;101492.88;;;7.88;100.00
72921;BME280;61064;51.654;5.476;2023-11-21T07:37:44;101511.53;;;7.93;100.00
72921;BME280;61064;51.654;5.476;2023-11-21T07:40:09;101516.94;;;7.96;100.00
72921;BME280;61064;51.654;5.476;2023-11-21T07:42:37;101515.25;;;8.00;100.00
72921;BME280;61064;51.654;5.476;2023-11-21T07:45:03;101505.38;;;7.94;100.00
72921;BME280;61064;51.654;5.476;2023-11-21T07:47:30;101517.00;;;7.99;100.00
72921;BME280;61064;51.654;5.476;2023-11-21T07:49:55;101533.19;;;8.10;100.00
72921;BME280;61064;51.654;5.476;2023-11-21T07:52:22;101520.78;;;8.07;100.00
72921;BME280;61064;51.654;5.476;2023-11-21T07:54:47;101511.94;;;8.08;100.00
72921;BME280;61064;51.654;5.476;2023-11-21T07:57:13;101515.56;;;8.10;100.00
72921;BME280;61064;51.654;5.476;2023-11-21T07:59:39;101516.53;;;8.14;100.00
72921;BME280;61064;51.654;5.476;2023-11-21T08:02:06;101507.69;;;8.13;100.00
72921;BME280;61064;51.654;5.476;2023-11-21T08:04:32;101525.53;;;8.19;100.00
72921;BME280;61064;51.654;5.476;2023-11-21T08:06:57;101521.09;;;8.19;100.00
72921;BME280;61064;51.654;5.476;2023-11-21T08:09:22;101536.25;;;8.25;100.00
72921;BME280;61064;51.654;5.476;2023-11-21T08:11:49;101526.31;;;8.16;100.00
72921;BME280;61064;51.654;5.476;2023-11-21T08:14:14;101534.50;;;8.24;100.00
72921;BME280;61064;51.654;5.476;2023-11-21T08:16:42;101524.69;;;8.21;100.00
72921;BME280;61064;51.654;5.476;2023-11-21T08:19:07;101541.75;;;8.31;100.00
72921;BME280;61064;51.654;5.476;2023-11-21T08:21:34;101545.28;;;8.30;100.00
72921;BME280;61064;51.654;5.476;2023-11-21T08:24:00;101543.66;;;8.35;100.00
72921;BME280;61064;51.654;5.476;2023-11-21T08:26:25;101555.34;;;8.43;100.00
72921;BME280;61064;51.654;5.476;2023-11-21T08:28:50;101555.41;;;8.45;100.00
72921;BME280;61064;51.654;5.476;2023-11-21T08:31:23;101562.66;;;8.52;100.00
72921;BME280;61064;51.654;5.476;2023-11-21T08:33:49;101568.03;;;8.55;100.00
72921;BME280;61064;51.654;5.476;2023-11-21T08:36:16;101571.63;;;8.57;100.00
72921;BME280;61064;51.654;5.476;2023-11-21T08:38:41;101569.84;;;8.56;100.00
72921;BME280;61064;51.654;5.476;2023-11-21T08:41:07;101567.13;;;8.54;100.00
72921;BME280;61064;51.654;5.476;2023-11-21T08:43:34;101578.06;;;8.66;100.00
72921;BME280;61064;51.654;5.476;2023-11-21T08:46:00;101569.00;;;8.58;100.00
72921;BME280;61064;51.654;5.476;2023-11-21T08:48:25;101582.63;;;8.72;100.00
72921;BME280;61064;51.654;5.476;2023-11-21T08:50:51;101575.41;;;8.66;100.00
72921;BME280;61064;51.654;5.476;2023-11-21T08:53:17;101592.34;;;8.71;100.00
72921;BME280;61064;51.654;5.476;2023-11-21T08:55:42;101587.19;;;8.77;100.00
72921;BME280;61064;51.654;5.476;2023-11-21T08:58:09;101596.28;;;8.87;100.00
72921;BME280;61064;51.654;5.476;2023-11-21T09:00:34;101582.00;;;8.82;100.00
72921;BME280;61064;51.654;5.476;2023-11-21T09:03:01;101591.16;;;8.95;100.00
72921;BME280;61064;51.654;5.476;2023-11-21T09:05:27;101586.75;;;8.95;100.00
72921;BME280;61064;51.654;5.476;2023-11-21T09:07:52;101599.50;;;9.10;100.00
72921;BME280;61064;51.654;5.476;2023-11-21T09:10:18;101585.22;;;9.05;100.00
72921;BME280;61064;51.654;5.476;2023-11-21T09:12:43;101597.00;;;9.16;100.00
72921;BME280;61064;51.654;5.476;2023-11-21T09:15:09;101612.28;;;9.25;100.00
72921;BME280;61064;51.654;5.476;2023-11-21T09:17:36;101600.91;;;9.32;100.00
72921;BME280;61064;51.654;5.476;2023-11-21T09:20:02;101607.22;;;9.37;100.00
72921;BME280;61064;51.654;5.476;2023-11-21T09:22:30;101608.31;;;9.45;100.00
72921;BME280;61064;51.654;5.476;2023-11-21T09:24:57;101610.06;;;9.44;100.00
72921;BME280;61064;51.654;5.476;2023-11-21T09:27:23;101609.28;;;9.48;100.00
72921;BME280;61064;51.654;5.476;2023-11-21T09:29:48;101609.28;;;9.48;100.00
72921;BME280;61064;51.654;5.476;2023-11-21T09:32:14;101611.16;;;9.54;100.00
72921;BME280;61064;51.654;5.476;2023-11-21T09:34:43;101632.66;;;9.65;100.00
72921;BME280;61064;51.654;5.476;2023-11-21T09:37:09;101619.28;;;9.60;100.00
72921;BME280;61064;51.654;5.476;2023-11-21T09:39:34;101638.09;;;9.69;100.00
72921;BME280;61064;51.654;5.476;2023-11-21T09:42:23;101630.09;;;9.68;100.00
72921;BME280;61064;51.654;5.476;2023-11-21T09:44:54;101638.13;;;9.71;100.00
72921;BME280;61064;51.654;5.476;2023-11-21T09:47:24;101650.66;;;9.76;100.00
72921;BME280;61064;51.654;5.476;2023-11-21T09:49:49;101656.00;;;9.78;100.00
72921;BME280;61064;51.654;5.476;2023-11-21T09:52:38;101666.72;;;9.82;100.00
72921;BME280;61064;51.654;5.476;2023-11-21T09:55:09;101663.22;;;9.83;100.00
72921;BME280;61064;51.654;5.476;2023-11-21T09:57:38;101669.47;;;9.87;100.00
72921;BME280;61064;51.654;5.476;2023-11-21T10:00:04;101664.16;;;9.85;100.00
72921;BME280;61064;51.654;5.476;2023-11-21T10:02:32;101664.16;;;9.87;100.00
72921;BME280;61064;51.654;5.476;2023-11-21T10:04:59;101676.75;;;9.94;100.00
72921;BME280;61064;51.654;5.476;2023-11-21T10:07:26;101669.56;;;9.90;100.00
72921;BME280;61064;51.654;5.476;2023-11-21T10:09:52;101679.53;;;10.00;100.00
72921;BME280;61064;51.654;5.476;2023-11-21T10:12:19;101670.59;;;9.96;100.00
72921;BME280;61064;51.654;5.476;2023-11-21T10:14:48;101671.53;;;9.98;100.00
72921;BME280;61064;51.654;5.476;2023-11-21T10:17:14;101692.09;;;10.07;100.00
72921;BME280;61064;51.654;5.476;2023-11-21T10:19:42;101689.38;;;10.04;100.00
72921;BME280;61064;51.654;5.476;2023-11-21T10:22:08;101702.78;;;10.10;100.00
72921;BME280;61064;51.654;5.476;2023-11-21T10:24:34;101702.88;;;10.15;100.00
72921;BME280;61064;51.654;5.476;2023-11-21T10:26:59;101692.13;;;10.09;100.00
72921;BME280;61064;51.654;5.476;2023-11-21T10:29:29;101705.72;;;10.19;100.00
72921;BME280;61064;51.654;5.476;2023-11-21T10:31:55;101690.56;;;10.17;100.00
72921;BME280;61064;51.654;5.476;2023-11-21T10:34:22;101692.34;;;10.16;100.00
72921;BME280;61064;51.654;5.476;2023-11-21T10:36:48;101712.06;;;10.27;100.00
72921;BME280;61064;51.654;5.476;2023-11-21T10:39:18;101710.38;;;10.31;100.00
72921;BME280;61064;51.654;5.476;2023-11-21T10:41:45;101714.88;;;10.33;100.00
72921;BME280;61064;51.654;5.476;2023-11-21T10:44:14;101713.16;;;10.37;100.00
72921;BME280;61064;51.654;5.476;2023-11-21T10:46:45;101707.84;;;10.37;100.00
72921;BME280;61064;51.654;5.476;2023-11-21T10:49:16;101711.44;;;10.39;100.00
72921;BME280;61064;51.654;5.476;2023-11-21T10:51:43;101717.88;;;10.50;100.00
72921;BME280;61064;51.654;5.476;2023-11-21T10:54:09;101722.38;;;10.53;100.00
72921;BME280;61064;51.654;5.476;2023-11-21T10:56:35;101718.81;;;10.52;100.00
72921;BME280;61064;51.654;5.476;2023-11-21T10:59:08;101717.09;;;10.56;100.00
72921;BME280;61064;51.654;5.476;2023-11-21T11:01:37;101711.88;;;10.60;100.00
72921;BME280;61064;51.654;5.476;2023-11-21T11:04:05;101699.50;;;10.62;100.00
72921;BME280;61064;51.654;5.476;2023-11-21T11:06:31;101703.88;;;10.60;100.00
72921;BME280;61064;51.654;5.476;2023-11-21T11:08:58;101723.63;;;10.71;100.00
72921;BME280;61064;51.654;5.476;2023-11-21T11:11:25;101720.88;;;10.67;100.00
72921;BME280;61064;51.654;5.476;2023-11-21T11:13:51;101727.16;;;10.70;100.00
72921;BME280;61064;51.654;5.476;2023-11-21T11:16:18;101721.81;;;10.69;100.00
72921;BME280;61064;51.654;5.476;2023-11-21T11:18:45;101721.81;;;10.70;100.00
72921;BME280;61064;51.654;5.476;2023-11-21T11:21:45;101737.91;;;10.76;100.00
72921;BME280;61064;51.654;5.476;2023-11-21T11:36:02;101747.13;;;10.94;100.00
72921;BME280;61064;51.654;5.476;2023-11-21T11:38:32;101762.31;;;10.98;100.00
72921;BME280;61064;51.654;5.476;2023-11-21T11:41:02;101757.75;;;10.91;100.00
72921;BME280;61064;51.654;5.476;2023-11-21T11:43:29;101747.88;;;10.85;100.00
72921;BME280;61064;51.654;5.476;2023-11-21T11:45:56;101761.22;;;10.87;100.00
72921;BME280;61064;51.654;5.476;2023-11-21T11:48:24;101753.06;;;10.79;100.00
72921;BME280;61064;51.654;5.476;2023-11-21T11:51:06;101775.41;;;10.86;100.00
72921;BME280;61064;51.654;5.476;2023-11-21T11:54:00;101769.88;;;10.76;100.00
72921;BME280;61064;51.654;5.476;2023-11-21T11:56:30;101785.06;;;10.82;100.00
72921;BME280;61064;51.654;5.476;2023-11-21T11:59:02;101777.84;;;10.75;100.00
72921;BME280;61064;51.654;5.476;2023-11-21T12:01:28;101776.00;;;10.72;100.00
72921;BME280;61064;51.654;5.476;2023-11-21T12:06:52;101791.91;;;10.69;100.00
72921;BME280;61064;51.654;5.476;2023-11-21T12:09:19;101795.56;;;10.74;100.00
72921;BME280;61064;51.654;5.476;2023-11-21T12:11:53;101783.94;;;10.69;100.00
72921;BME280;61064;51.654;5.476;2023-11-21T12:14:23;101797.34;;;10.74;100.00
72921;BME280;61064;51.654;5.476;2023-11-21T12:16:49;101799.06;;;10.72;100.00
72921;BME280;61064;51.654;5.476;2023-11-21T12:19:18;101795.53;;;10.73;100.00
72921;BME280;61064;51.654;5.476;2023-11-21T12:21:46;101799.06;;;10.72;100.00
72921;BME280;61064;51.654;5.476;2023-11-21T12:24:14;101809.78;;;10.75;100.00
72921;BME280;61064;51.654;5.476;2023-11-21T12:26:44;101816.81;;;10.73;100.00
72921;BME280;61064;51.654;5.476;2023-11-21T12:29:13;101824.00;;;10.75;100.00
72921;BME280;61064;51.654;5.476;2023-11-21T12:31:41;101824.84;;;10.76;100.00
72921;BME280;61064;51.654;5.476;2023-11-21T12:34:07;101822.00;;;10.67;100.00
72921;BME280;61064;51.654;5.476;2023-11-21T12:36:34;101836.34;;;10.73;100.00
72921;BME280;61064;51.654;5.476;2023-11-21T12:39:01;101830.91;;;10.67;100.00
72921;BME280;61064;51.654;5.476;2023-11-21T12:41:28;101810.41;;;10.63;100.00
72921;BME280;61064;51.654;5.476;2023-11-21T12:43:55;101823.81;;;10.68;100.00
72921;BME280;61064;51.654;5.476;2023-11-21T12:46:20;101825.63;;;10.70;100.00
72921;BME280;61064;51.654;5.476;2023-11-21T12:48:46;101829.19;;;10.71;100.00
72921;BME280;61064;51.654;5.476;2023-11-21T12:51:12;101827.41;;;10.70;100.00
72921;BME280;61064;51.654;5.476;2023-11-21T12:53:41;101835.41;;;10.71;100.00
72921;BME280;61064;51.654;5.476;2023-11-21T12:56:11;101819.16;;;10.59;100.00
72921;BME280;61064;51.654;5.476;2023-11-21T12:58:39;101818.31;;;10.59;100.00
72921;BME280;61064;51.654;5.476;2023-11-21T13:01:06;101824.50;;;10.59;100.00